Time;durP1;ratioP1;P1;durP2;ratioP2;P2;SDS_P1;SDS_P2;PMS_P1;PMS_P2;Temp;Humidity;BMP_temperature;BMP_pressure;BME280_temperature;BME280_humidity;BME280_pressure;Samples;Min_cycle;Max_cycle;Signal;HPM_P1;HPM_P2
2022/07/02 00:00:58;;;;;;;14.48;7.13;;;;;;;23.03;70.66;95029.28;4948863;29;20592;-76
2022/07/02 00:03:31;;;;;;;34.38;20.58;;;;;;;23.01;70.72;95027.97;4954400;29;20233;-75
2022/07/02 00:05:59;;;;;;;19.33;11.88;;;;;;;22.98;70.99;95025.88;4954255;29;20708;-76
2022/07/02 00:08:27;;;;;;;22.42;14.48;;;;;;;22.92;71.28;95027.78;4954090;29;20189;-76
2022/07/02 00:10:54;;;;;;;17.30;8.88;;;;;;;22.90;71.12;95025.41;4935235;29;20530;-76
2022/07/02 00:13:21;;;;;;;14.73;9.80;;;;;;;22.81;71.42;95029.78;4952556;29;20178;-76
2022/07/02 00:15:47;;;;;;;17.50;8.85;;;;;;;22.75;71.46;95030.91;4948934;29;20573;-75
2022/07/02 00:18:13;;;;;;;30.17;19.35;;;;;;;22.72;72.21;95026.09;4954076;29;20692;-76
2022/07/02 00:20:40;;;;;;;22.25;12.30;;;;;;;22.67;72.38;95025.31;4940361;29;20214;-76
2022/07/02 00:23:06;;;;;;;19.85;14.25;;;;;;;22.67;72.49;95034.16;4953908;29;20570;-76
2022/07/02 00:25:40;;;;;;;27.73;15.43;;;;;;;22.41;72.42;94996.00;4953790;29;20175;-76
2022/07/02 00:28:06;;;;;;;20.08;11.75;;;;;;;22.66;72.59;95027.19;4954014;29;20183;-76
2022/07/02 00:30:33;;;;;;;17.58;8.65;;;;;;;22.64;72.23;95018.63;4953725;29;20166;-76
2022/07/02 00:33:00;;;;;;;14.50;9.43;;;;;;;22.62;72.33;95025.38;4936666;29;20619;-76
2022/07/02 00:35:26;;;;;;;20.02;10.70;;;;;;;22.56;72.08;95009.31;4952095;28;20193;-76
2022/07/02 00:37:53;;;;;;;33.38;12.32;;;;;;;22.49;72.17;95006.13;4954278;29;20179;-76
2022/07/02 00:40:19;;;;;;;26.40;11.88;;;;;;;22.56;72.53;95020.06;4953893;29;20681;-76
2022/07/02 00:42:46;;;;;;;39.05;13.27;;;;;;;22.54;72.25;95029.47;4953749;29;20667;-76
2022/07/02 00:45:12;;;;;;;39.42;13.30;;;;;;;22.49;72.92;95024.91;4953578;29;20748;-76
2022/07/02 00:47:41;;;;;;;41.17;11.82;;;;;;;22.27;72.23;94996.94;4953434;29;20275;-76
2022/07/02 00:50:07;;;;;;;25.20;11.68;;;;;;;22.39;72.53;95030.41;4953402;29;20261;-76
2022/07/02 00:52:33;;;;;;;36.10;11.52;;;;;;;22.31;72.73;95028.31;4953251;29;20237;-76
2022/07/02 00:54:59;;;;;;;31.63;11.45;;;;;;;22.33;73.14;95036.06;4953528;29;20650;-76
2022/07/02 00:57:25;;;;;;;30.67;11.05;;;;;;;22.19;73.43;95022.47;4953145;29;20278;-76
2022/07/02 00:59:50;;;;;;;27.88;10.30;;;;;;;22.29;73.08;95037.72;4953240;29;20202;-76
2022/07/02 01:02:20;;;;;;;40.10;19.10;;;;;;;22.31;73.20;95033.69;4952823;29;20232;-76
2022/07/02 01:04:47;;;;;;;27.10;15.60;;;;;;;22.29;72.74;95027.78;4953112;29;20179;-76
2022/07/02 01:07:15;;;;;;;26.50;13.43;;;;;;;22.20;73.47;95029.44;4953094;29;20170;-76
2022/07/02 01:12:28;;;;;;;18.25;12.00;;;;;;;22.15;73.99;95027.59;4953362;29;20253;-75
2022/07/02 01:14:55;;;;;;;20.02;11.43;;;;;;;22.17;73.65;95022.75;4952973;29;20186;-76
2022/07/02 01:17:21;;;;;;;13.82;8.65;;;;;;;22.04;74.20;95019.91;4952953;29;20182;-75
2022/07/02 01:19:47;;;;;;;16.42;9.15;;;;;;;21.92;74.37;94990.72;4952785;29;20210;-75
2022/07/02 01:22:14;;;;;;;18.33;10.73;;;;;;;22.08;74.34;95016.38;4952256;28;20175;-75
2022/07/02 01:24:40;;;;;;;16.13;9.00;;;;;;;22.13;73.65;95013.69;4952948;29;20178;-75
2022/07/02 01:27:05;;;;;;;19.35;10.52;;;;;;;22.16;74.08;95017.66;4953018;29;20182;-76
2022/07/02 01:29:31;;;;;;;13.43;8.85;;;;;;;22.20;73.89;95021.41;4952734;29;20555;-76
2022/07/02 01:31:56;;;;;;;21.00;11.70;;;;;;;22.12;74.12;95014.75;4952674;29;20170;-76
2022/07/02 01:34:22;;;;;;;24.05;14.82;;;;;;;22.11;74.30;95018.50;4952357;29;20181;-75
2022/07/02 01:36:49;;;;;;;23.23;13.77;;;;;;;21.85;74.43;94976.84;4952802;29;20178;-75
2022/07/02 01:39:15;;;;;;;33.35;18.52;;;;;;;22.07;74.20;95014.78;4952804;29;20672;-75
2022/07/02 01:41:40;;;;;;;17.25;10.77;;;;;;;22.06;74.46;95015.84;4952708;29;20183;-75
2022/07/02 01:44:09;;;;;;;18.17;9.98;;;;;;;22.06;74.53;95015.03;4952501;29;20252;-76
2022/07/02 01:46:36;;;;;;;17.45;8.02;;;;;;;22.02;74.41;95009.47;4952740;29;20175;-76
2022/07/02 01:49:02;;;;;;;18.40;11.95;;;;;;;21.94;75.29;95019.94;4952663;29;20178;-75
2022/07/02 01:51:28;;;;;;;17.90;10.02;;;;;;;21.89;75.40;95018.06;4952669;29;20653;-75
2022/07/02 01:53:54;;;;;;;12.75;9.25;;;;;;;21.73;75.67;94992.44;4952404;29;20186;-75
2022/07/02 01:56:19;;;;;;;15.25;9.35;;;;;;;21.92;75.68;95014.84;4952498;29;20309;-75
2022/07/02 01:58:44;;;;;;;20.63;8.60;;;;;;;21.94;75.05;95014.56;4952518;29;20567;-75
2022/07/02 02:01:10;;;;;;;18.60;8.38;;;;;;;21.80;75.19;94995.63;4952263;29;20205;-76
2022/07/02 02:03:36;;;;;;;19.50;9.55;;;;;;;21.89;75.69;95023.44;4952201;29;20268;-76
2022/07/02 02:06:02;;;;;;;12.75;8.50;;;;;;;21.87;75.68;95014.09;4952422;29;20564;-75
2022/07/02 02:08:27;;;;;;;23.38;9.75;;;;;;;21.83;75.44;95016.50;4952313;29;20189;-76
2022/07/02 02:10:53;;;;;;;24.30;14.65;;;;;;;21.85;75.63;95025.09;4952072;29;20178;-76
2022/07/02 02:13:18;;;;;;;19.77;12.13;;;;;;;21.82;75.62;95012.22;4952389;29;20174;-76
2022/07/02 02:15:44;;;;;;;32.08;18.58;;;;;;;21.69;75.62;94989.53;4952208;29;20655;-76
2022/07/02 02:18:09;;;;;;;23.23;14.50;;;;;;;21.82;75.32;95012.22;4952188;29;20556;-76
2022/07/02 02:20:35;;;;;;;18.33;11.48;;;;;;;21.76;75.95;95007.97;4952193;29;20226;-75
2022/07/02 02:23:04;;;;;;;15.70;9.93;;;;;;;21.62;76.02;94989.00;4952423;29;20182;-76
2022/07/02 02:25:30;;;;;;;21.95;13.10;;;;;;;21.73;76.46;95014.69;4952267;29;20563;-76
2022/07/02 02:27:56;;;;;;;16.05;11.43;;;;;;;21.73;75.13;95020.03;4952194;29;20183;-75
2022/07/02 02:30:21;;;;;;;23.20;13.60;;;;;;;21.59;75.35;95000.31;4934877;29;20245;-75
2022/07/02 02:32:47;;;;;;;30.17;19.40;;;;;;;21.68;75.17;95030.00;4952791;28;20179;-75
2022/07/02 02:35:12;;;;;;;30.85;21.52;;;;;;;21.69;75.35;95028.94;4955997;29;20178;-76
2022/07/02 02:37:38;;;;;;;33.60;20.55;;;;;;;21.72;75.65;95031.84;4956167;29;20188;-76
2022/07/02 02:40:04;;;;;;;26.52;16.10;;;;;;;21.73;75.25;95033.44;4955549;29;20225;-76
2022/07/02 02:42:29;;;;;;;19.55;12.50;;;;;;;21.72;75.51;95044.44;4955728;29;20685;-75
2022/07/02 02:44:54;;;;;;;23.52;13.68;;;;;;;21.67;75.49;95037.25;4955990;29;20645;-75
2022/07/02 02:47:22;;;;;;;43.70;25.75;;;;;;;21.70;75.41;95044.75;4956190;29;20170;-76
2022/07/02 02:49:47;;;;;;;35.92;21.60;;;;;;;21.61;75.39;95033.00;4938611;29;20602;-76
2022/07/02 02:52:13;;;;;;;29.08;14.90;;;;;;;21.61;75.28;95038.34;4955742;29;20174;-76
2022/07/02 02:54:38;;;;;;;21.88;11.73;;;;;;;21.64;74.93;95048.50;4955706;29;20265;-75
2022/07/02 02:57:04;;;;;;;23.60;12.50;;;;;;;21.59;75.30;95047.72;4955482;29;20171;-75
2022/07/02 02:59:30;;;;;;;42.53;23.40;;;;;;;21.55;76.11;95054.69;4955151;29;20584;-75
2022/07/02 03:01:55;;;;;;;27.90;17.60;;;;;;;21.45;75.80;95040.25;4955066;29;20178;-76
2022/07/02 03:04:21;;;;;;;39.03;16.67;;;;;;;21.60;75.58;95062.72;4955270;29;20186;-76
2022/07/02 03:06:46;;;;;;;17.02;10.30;;;;;;;21.55;75.81;95062.75;4955082;29;20178;-75
2022/07/02 03:09:11;;;;;;;17.50;11.82;;;;;;;21.52;76.36;95065.97;4955078;29;20186;-75
2022/07/02 03:11:37;;;;;;;20.17;13.05;;;;;;;21.50;76.35;95065.44;4955063;29;20257;-75
2022/07/02 03:14:02;;;;;;;24.17;12.75;;;;;;;21.53;76.15;95071.06;4955413;29;20220;-76
2022/07/02 03:16:28;;;;;;;19.85;11.13;;;;;;;21.52;75.82;95064.09;4955215;29;20288;-77
2022/07/02 03:18:53;;;;;;;17.85;10.38;;;;;;;21.32;76.25;95030.16;4954964;29;20615;-76
2022/07/02 03:21:19;;;;;;;16.90;9.45;;;;;;;21.54;76.03;95058.44;4954972;29;20694;-76
2022/07/02 03:23:44;;;;;;;15.82;10.30;;;;;;;21.51;76.23;95065.19;4937852;29;20193;-76
2022/07/02 03:26:09;;;;;;;17.08;8.95;;;;;;;21.45;75.81;95055.53;4954955;29;20183;-76
2022/07/02 03:28:35;;;;;;;14.93;9.25;;;;;;;21.55;76.11;95071.59;4954825;29;20177;-76
2022/07/02 03:31:00;;;;;;;13.32;8.90;;;;;;;21.60;76.77;95070.78;4955098;29;20531;-76
2022/07/02 03:33:26;;;;;;;12.77;9.10;;;;;;;21.70;76.07;95074.22;4954872;29;20178;-76
2022/07/02 03:35:51;;;;;;;14.48;8.65;;;;;;;21.65;75.47;95058.16;4954662;29;20178;-76
2022/07/02 03:38:17;;;;;;;15.73;8.48;;;;;;;21.88;75.05;95077.34;4954656;29;20178;-76
2022/07/02 03:40:42;;;;;;;16.58;8.57;;;;;;;22.00;74.51;95078.66;4954835;29;20285;-76
2022/07/02 03:43:08;;;;;;;20.13;8.10;;;;;;;21.99;74.44;95070.88;4954937;29;20182;-76
2022/07/02 03:45:33;;;;;;;20.67;8.30;;;;;;;22.05;74.15;95075.16;4954076;28;20189;-76
2022/07/02 03:47:58;;;;;;;16.77;8.20;;;;;;;22.16;74.05;95088.19;4954662;29;20166;-77
2022/07/02 03:50:24;;;;;;;13.23;7.90;;;;;;;22.26;74.70;95091.91;4954614;29;20591;-76
2022/07/02 03:52:49;;;;;;;13.80;8.27;;;;;;;22.36;74.65;95091.84;4954492;29;20253;-76
2022/07/02 03:55:15;;;;;;;18.45;11.60;;;;;;;22.50;73.82;95088.25;4954230;29;20178;-76
2022/07/02 03:57:40;;;;;;;17.83;9.52;;;;;;;22.58;72.96;95090.31;4954332;29;20665;-76
2022/07/02 04:00:06;;;;;;;19.98;9.88;;;;;;;22.69;72.55;95087.56;4954048;29;20199;-76
2022/07/02 04:02:32;;;;;;;17.98;9.07;;;;;;;22.83;72.97;95093.94;4953934;29;20292;-76
2022/07/02 04:04:57;;;;;;;20.63;9.52;;;;;;;22.99;72.42;95095.41;4954251;29;20681;-76
2022/07/02 04:07:23;;;;;;;14.93;9.48;;;;;;;23.16;70.89;95095.78;4954351;29;20182;-76
2022/07/02 04:09:49;;;;;;;18.35;8.98;;;;;;;23.27;69.98;95094.59;4953936;29;20289;-76
2022/07/02 04:12:14;;;;;;;14.32;9.45;;;;;;;23.41;70.34;95093.91;4954276;29;20166;-76
2022/07/02 04:14:39;;;;;;;15.50;9.38;;;;;;;23.56;68.70;95097.28;4953885;29;20174;-76
2022/07/02 04:17:05;;;;;;;15.63;8.70;;;;;;;23.63;69.66;95089.66;4954001;29;20182;-76
2022/07/02 04:19:31;;;;;;;14.27;8.88;;;;;;;23.83;69.12;95101.25;4953824;29;20187;-76
2022/07/02 04:21:56;;;;;;;13.20;8.60;;;;;;;23.98;67.14;95101.88;4954503;29;20190;-76
2022/07/02 04:24:22;;;;;;;15.57;8.07;;;;;;;24.00;67.69;95088.13;4954349;29;20180;-76
2022/07/02 04:26:47;;;;;;;14.70;8.40;;;;;;;24.26;68.48;95110.16;4953689;29;20664;-76
2022/07/02 04:29:13;;;;;;;17.60;8.77;;;;;;;24.41;66.96;95116.09;4953845;29;20544;-76
2022/07/02 04:31:38;;;;;;;14.68;8.40;;;;;;;24.55;64.67;95110.00;4953796;29;20188;-76
2022/07/02 04:34:04;;;;;;;15.40;9.00;;;;;;;24.63;64.38;95110.16;4953913;29;20186;-76
2022/07/02 04:36:29;;;;;;;15.27;8.52;;;;;;;24.75;64.57;95106.97;4953761;29;20177;-76
2022/07/02 04:38:55;;;;;;;11.98;7.75;;;;;;;24.88;64.77;95111.63;4953490;29;20229;-76
2022/07/02 04:41:20;;;;;;;14.75;9.18;;;;;;;25.05;64.51;95117.31;4953290;29;20194;-76
2022/07/02 04:43:46;;;;;;;15.77;8.77;;;;;;;25.18;62.61;95111.16;4953471;29;20568;-76
2022/07/02 04:46:12;;;;;;;18.60;9.68;;;;;;;25.27;61.99;95108.56;4953694;29;20576;-76
2022/07/02 04:48:37;;;;;;;13.15;9.32;;;;;;;25.26;61.49;95112.34;4953706;29;20179;-76
2022/07/02 04:51:03;;;;;;;18.25;9.65;;;;;;;25.19;61.91;95115.44;4953214;29;20175;-75
2022/07/02 04:53:28;;;;;;;18.13;9.95;;;;;;;25.17;61.71;95093.38;4953197;29;20268;-76
2022/07/02 04:55:54;;;;;;;15.70;9.80;;;;;;;25.49;61.59;95113.31;4953062;28;20571;-76
2022/07/02 04:58:19;;;;;;;20.30;9.65;;;;;;;25.73;61.55;95119.34;4953437;29;20189;-76
2022/07/02 05:00:44;;;;;;;14.45;9.07;;;;;;;26.02;60.65;95124.44;4953072;29;20206;-76
2022/07/02 05:03:10;;;;;;;13.27;8.73;;;;;;;26.16;60.61;95110.91;4952868;29;20244;-76
2022/07/02 05:05:35;;;;;;;13.50;9.00;;;;;;;26.53;60.07;95118.78;4953020;29;20194;-76
2022/07/02 05:08:01;;;;;;;18.25;8.52;;;;;;;26.88;59.25;95125.25;4953084;29;20185;-76
2022/07/02 05:10:26;;;;;;;16.30;8.98;;;;;;;27.25;58.74;95107.84;4935666;29;20174;-76
2022/07/02 05:12:51;;;;;;;13.55;8.20;;;;;;;27.69;56.74;95114.31;4953047;29;20182;-76
2022/07/02 05:15:17;;;;;;;13.02;8.40;;;;;;;28.02;55.62;95114.75;4952819;29;20178;-76
2022/07/02 05:17:43;;;;;;;10.10;7.38;;;;;;;28.29;55.40;95113.72;4952946;29;20549;-76
2022/07/02 05:20:09;;;;;;;12.95;8.38;;;;;;;28.70;55.33;95121.41;4952533;29;20252;-76
2022/07/02 05:22:35;;;;;;;12.30;8.30;;;;;;;29.10;53.34;95122.06;4953889;29;20702;-76
2022/07/02 05:25:00;;;;;;;13.95;8.55;;;;;;;29.39;53.65;95116.78;4953811;29;20174;-76
2022/07/02 05:27:26;;;;;;;9.07;7.63;;;;;;;29.72;51.61;95124.34;4953906;29;20202;-77
2022/07/02 05:29:51;;;;;;;9.23;7.20;;;;;;;30.05;50.11;95127.25;4954280;29;20555;-77
2022/07/02 05:32:17;;;;;;;11.80;7.63;;;;;;;30.28;49.12;95133.97;4954694;29;20225;-77
2022/07/02 05:34:42;;;;;;;12.10;7.60;;;;;;;30.37;49.89;95097.47;4954986;29;20185;-77
2022/07/02 05:37:07;;;;;;;12.88;8.30;;;;;;;30.86;49.14;95124.19;4953242;29;20181;-77
2022/07/02 05:39:33;;;;;;;13.18;8.32;;;;;;;31.07;46.87;95123.06;4952795;29;20186;-78
2022/07/02 05:41:58;;;;;;;17.67;7.80;;;;;;;31.27;48.04;95128.81;4952901;29;20197;-78
2022/07/02 05:44:23;;;;;;;10.98;7.55;;;;;;;31.35;45.63;95136.09;4952749;29;20702;-78
2022/07/02 05:46:49;;;;;;;17.42;9.45;;;;;;;31.47;44.82;95144.31;4952970;29;20170;-78
2022/07/02 05:49:14;;;;;;;16.63;10.13;;;;;;;31.50;44.79;95144.41;4952942;29;20170;-78
2022/07/02 05:51:40;;;;;;;12.90;8.55;;;;;;;31.58;44.44;95150.09;4952790;29;20222;-78
2022/07/02 05:54:05;;;;;;;13.75;8.52;;;;;;;31.37;44.51;95139.28;4952733;29;20262;-78
2022/07/02 05:56:30;;;;;;;10.35;8.57;;;;;;;31.21;46.01;95133.66;4952776;29;20198;-78
2022/07/02 05:58:56;;;;;;;10.65;7.85;;;;;;;31.25;45.27;95131.06;4952239;28;20487;-78
2022/07/02 06:01:21;;;;;;;13.82;8.75;;;;;;;31.35;45.15;95133.38;4952531;29;20206;-78
2022/07/02 06:03:47;;;;;;;16.30;11.18;;;;;;;31.38;45.32;95135.44;4952525;28;20649;-78
2022/07/02 06:08:56;;;;;;;16.25;8.63;;;;;;;31.33;46.74;95141.06;4958148;28;20192;-78
2022/07/02 06:11:22;;;;;;;11.52;8.52;;;;;;;31.39;45.02;95142.47;4959053;28;20614;-78
2022/07/02 06:13:47;;;;;;;10.07;7.82;;;;;;;31.47;44.22;95145.09;4958640;29;20213;-78
2022/07/02 06:16:13;;;;;;;13.27;7.47;;;;;;;31.44;45.46;95144.97;4958974;28;20246;-77
2022/07/02 06:18:38;;;;;;;9.32;7.10;;;;;;;31.59;43.87;95146.25;4958419;29;20661;-76
2022/07/02 06:21:03;;;;;;;17.02;7.72;;;;;;;31.50;45.84;95146.34;4958379;29;20198;-76
2022/07/02 06:23:29;;;;;;;15.07;8.38;;;;;;;31.66;45.74;95147.31;4958590;29;20595;-76
2022/07/02 06:25:54;;;;;;;11.00;8.15;;;;;;;31.84;45.15;95142.44;4958212;29;20182;-76
2022/07/02 06:28:20;;;;;;;11.32;7.90;;;;;;;31.93;44.22;95145.06;4958108;29;20174;-76
2022/07/02 06:30:45;;;;;;;12.85;8.02;;;;;;;32.03;43.75;95141.91;4958204;29;20689;-76
2022/07/02 06:33:10;;;;;;;10.65;8.15;;;;;;;32.07;45.05;95148.28;4958344;29;20166;-76
2022/07/02 06:35:36;;;;;;;11.93;8.00;;;;;;;32.08;45.50;95147.16;4958155;29;20588;-76
2022/07/02 06:38:02;;;;;;;13.38;7.63;;;;;;;32.18;45.39;95147.50;4957813;28;20201;-77
2022/07/02 06:40:27;;;;;;;13.52;8.18;;;;;;;32.24;42.95;95156.25;4958536;29;20202;-77
2022/07/02 06:42:52;;;;;;;13.57;7.97;;;;;;;32.21;45.15;95135.13;4958925;29;20262;-78
2022/07/02 06:45:19;;;;;;;10.90;7.82;;;;;;;32.42;44.09;95140.47;4958051;29;20190;-78
2022/07/02 06:47:44;;;;;;;12.98;8.15;;;;;;;32.53;44.48;95153.28;4956685;29;20182;-78
2022/07/02 06:50:11;;;;;;;10.55;8.18;;;;;;;32.41;45.24;95147.84;4948250;29;20253;-77
2022/07/02 06:52:37;;;;;;;16.45;8.50;;;;;;;32.49;42.92;95146.94;4958410;28;20186;-77
2022/07/02 06:55:04;;;;;;;10.95;7.65;;;;;;;32.65;43.84;95148.94;4964788;28;20174;-77
2022/07/02 06:57:29;;;;;;;11.20;8.93;;;;;;;32.67;42.26;95152.13;4959318;28;20190;-79
2022/07/02 06:59:55;;;;;;;11.45;8.18;;;;;;;32.76;41.85;95148.16;4960719;28;20288;-77
2022/07/02 07:02:21;;;;;;;15.23;8.68;;;;;;;32.73;44.15;95145.31;4960394;28;20226;-77
2022/07/02 07:04:47;;;;;;;10.93;7.50;;;;;;;32.83;44.07;95153.03;4951387;28;20241;-79
2022/07/02 07:07:12;;;;;;;9.43;8.35;;;;;;;32.91;45.82;95154.81;4933454;29;20170;-78
2022/07/02 07:09:38;;;;;;;12.65;8.32;;;;;;;32.91;42.74;95152.91;4957252;28;20633;-77
2022/07/02 07:12:05;;;;;;;19.90;7.28;;;;;;;33.07;44.20;95152.94;4959069;28;20190;-76
2022/07/02 07:14:34;;;;;;;10.85;7.28;;;;;;;33.28;43.00;95163.72;4929732;29;20598;-77
2022/07/02 07:17:00;;;;;;;12.23;7.63;;;;;;;33.49;43.03;95169.75;4959262;29;20167;-76
2022/07/02 07:19:26;;;;;;;12.98;7.47;;;;;;;33.56;41.36;95166.41;4950717;28;20524;-78
2022/07/02 07:21:51;;;;;;;10.95;7.57;;;;;;;33.48;41.98;95159.97;4951966;29;20196;-77
2022/07/02 07:24:17;;;;;;;9.95;6.63;;;;;;;33.41;44.09;95158.97;4954628;29;20174;-78
2022/07/02 07:26:42;;;;;;;12.95;7.78;;;;;;;33.30;42.67;95158.69;4951636;29;20252;-78
2022/07/02 07:29:08;;;;;;;21.60;7.03;;;;;;;33.26;45.21;95146.88;4949889;29;20178;-77
2022/07/02 07:31:34;;;;;;;10.52;7.28;;;;;;;33.82;41.93;95163.25;4953793;29;20171;-78
2022/07/02 07:34:00;;;;;;;10.20;6.88;;;;;;;34.01;43.00;95166.84;4951434;29;20292;-78
2022/07/02 07:36:27;;;;;;;7.75;6.68;;;;;;;34.20;38.66;95168.88;4950793;29;20206;-78
2022/07/02 07:38:53;;;;;;;8.40;6.85;;;;;;;33.94;40.20;95155.75;4945498;29;20194;-78
2022/07/02 07:41:21;;;;;;;10.30;6.97;;;;;;;33.58;40.46;95170.41;4953349;29;20222;-78
2022/07/02 07:43:47;;;;;;;12.48;7.93;;;;;;;33.40;41.02;95168.31;4951265;29;20211;-77
2022/07/02 07:46:12;;;;;;;7.65;6.28;;;;;;;33.56;42.12;95169.94;4954257;29;20191;-80
2022/07/02 07:48:38;;;;;;;7.57;6.70;;;;;;;33.65;40.36;95139.72;4955464;29;20206;-79
2022/07/02 07:51:05;;;;;;;10.60;7.20;;;;;;;33.79;39.89;95131.94;4954930;29;20257;-79
2022/07/02 07:53:31;;;;;;;9.02;6.75;;;;;;;33.97;38.31;95163.25;4952983;29;20183;-79
2022/07/02 07:55:57;;;;;;;9.00;6.40;;;;;;;33.63;40.22;95167.44;4953593;29;20205;-80
2022/07/02 07:58:22;;;;;;;9.15;6.72;;;;;;;33.54;38.97;95166.78;4955180;29;20207;-77
2022/07/02 08:00:48;;;;;;;14.38;7.55;;;;;;;33.39;40.69;95142.94;4934483;29;20206;-77
2022/07/02 08:03:14;;;;;;;11.73;7.10;;;;;;;33.60;39.35;95167.31;4954349;29;20292;-78
2022/07/02 08:05:41;;;;;;;11.38;7.63;;;;;;;33.69;40.95;95166.00;4954658;29;20221;-78
2022/07/02 08:08:09;;;;;;;7.57;6.80;;;;;;;33.60;40.54;95167.31;4953591;29;20218;-78
2022/07/02 08:10:35;;;;;;;11.23;7.28;;;;;;;33.59;40.21;95163.78;4954354;29;20174;-77
2022/07/02 08:13:00;;;;;;;12.18;7.78;;;;;;;33.61;40.71;95152.53;4954513;29;20602;-79
2022/07/02 08:15:26;;;;;;;13.30;7.25;;;;;;;33.94;43.07;95158.47;4955264;29;20170;-79
2022/07/02 08:17:52;;;;;;;12.57;7.13;;;;;;;34.31;41.54;95147.31;4954320;28;20198;-79
2022/07/02 08:20:18;;;;;;;12.20;6.75;;;;;;;34.65;39.98;95157.47;4955298;29;20202;-79
2022/07/02 08:22:46;;;;;;;10.02;6.57;;;;;;;34.83;40.29;95155.16;4953168;29;20265;-78
2022/07/02 08:25:13;;;;;;;11.48;7.13;;;;;;;34.92;39.13;95160.44;4955706;29;20178;-79
2022/07/02 08:27:40;;;;;;;8.45;6.90;;;;;;;35.01;38.02;95158.28;4954067;29;20190;-77
2022/07/02 08:30:06;;;;;;;11.75;7.72;;;;;;;35.11;38.26;95168.69;4952656;28;20213;-77
2022/07/02 08:32:31;;;;;;;12.20;7.40;;;;;;;35.11;39.57;95153.03;4952499;29;20182;-75
2022/07/02 08:34:58;;;;;;;13.23;7.55;;;;;;;35.38;38.80;95173.16;4953170;29;20178;-76
2022/07/02 08:37:24;;;;;;;11.63;7.32;;;;;;;35.43;38.19;95161.13;4953100;29;20187;-76
2022/07/02 08:39:50;;;;;;;15.30;7.82;;;;;;;35.23;38.56;95171.28;4951839;29;20201;-77
2022/07/02 08:42:29;;;;;;;8.18;7.32;;;;;;;34.90;39.43;95151.78;4954232;29;20170;-77
2022/07/02 08:45:03;;;;;;;13.70;7.00;;;;;;;35.22;39.27;95169.66;4951954;28;20197;-77
2022/07/02 08:47:29;;;;;;;9.35;7.80;;;;;;;35.34;38.15;95172.31;4954165;29;20178;-77
2022/07/02 08:49:57;;;;;;;12.13;8.20;;;;;;;35.42;37.70;95171.28;4953362;29;20179;-78
2022/07/02 08:52:25;;;;;;;10.43;8.30;;;;;;;34.69;36.95;95179.44;4953932;29;20178;-77
2022/07/02 08:54:51;;;;;;;27.52;8.82;;;;;;;34.11;39.70;95175.69;4953960;29;20253;-77
2022/07/02 08:57:17;;;;;;;10.73;7.50;;;;;;;33.61;40.01;95168.91;4952601;29;20186;-76
2022/07/02 08:59:43;;;;;;;11.15;7.13;;;;;;;33.74;42.34;95172.38;4953339;29;20193;-75
2022/07/02 09:02:13;;;;;;;11.43;6.88;;;;;;;34.04;40.73;95170.84;4952851;29;20222;-76
2022/07/02 09:04:45;;;;;;;12.13;7.28;;;;;;;33.53;40.45;95172.59;4952665;28;20178;-76
2022/07/02 09:07:13;;;;;;;11.18;7.10;;;;;;;33.54;39.40;95169.53;4952689;29;20186;-77
2022/07/02 09:09:41;;;;;;;8.60;7.63;;;;;;;33.74;42.72;95166.91;4953545;29;20178;-76
2022/07/02 09:12:12;;;;;;;11.30;8.15;;;;;;;33.86;39.78;95173.13;4949518;29;20245;-76
2022/07/02 09:14:39;;;;;;;14.00;8.27;;;;;;;33.70;40.73;95145.75;4953329;29;20171;-77
2022/07/02 09:17:06;;;;;;;15.52;11.73;;;;;;;33.83;44.60;95138.28;4953324;29;20178;-77
2022/07/02 09:19:33;;;;;;;9.48;7.00;;;;;;;34.27;40.35;95163.63;4950819;28;20240;-75
2022/07/02 09:21:58;;;;;;;10.77;6.80;;;;;;;34.33;37.12;95153.22;4952537;29;20563;-75
2022/07/02 09:24:39;;;;;;;8.40;6.40;;;;;;;34.39;39.46;95157.25;4950566;29;20265;-76
2022/07/02 09:27:10;;;;;;;11.45;6.68;;;;;;;34.31;36.59;95156.31;4952594;29;20598;-76
2022/07/02 09:29:49;;;;;;;10.93;6.45;;;;;;;34.25;37.52;95156.94;4953859;29;20174;-76
2022/07/02 09:32:16;;;;;;;9.00;6.20;;;;;;;34.10;36.70;95158.47;4937303;29;20178;-74
2022/07/02 09:34:44;;;;;;;8.10;6.15;;;;;;;34.05;38.04;95150.56;4953993;28;20185;-75
2022/07/02 09:37:14;;;;;;;11.48;6.10;;;;;;;34.06;39.11;95152.16;4959612;29;20178;-76
2022/07/02 09:39:41;;;;;;;10.30;6.50;;;;;;;34.02;37.05;95152.06;4953172;29;20178;-75
2022/07/02 09:42:07;;;;;;;9.50;6.07;;;;;;;33.91;37.15;95161.13;4952675;28;20702;-75
2022/07/02 09:44:33;;;;;;;7.78;5.70;;;;;;;33.73;36.69;95144.31;4952733;29;20249;-76
2022/07/02 09:47:03;;;;;;;7.60;5.18;;;;;;;33.66;39.42;95149.53;4932997;29;20187;-76
2022/07/02 09:49:29;;;;;;;5.97;4.70;;;;;;;33.51;38.04;95148.34;4933099;29;20183;-75
2022/07/02 09:51:55;;;;;;;9.77;4.68;;;;;;;33.54;37.08;95146.88;4951533;29;20684;-76
2022/07/02 09:54:22;;;;;;;7.07;5.78;;;;;;;33.45;37.81;95143.50;4951130;29;20190;-75
2022/07/02 09:56:55;;;;;;;9.50;5.50;;;;;;;33.16;38.03;95126.31;4946770;29;20446;-75
2022/07/02 09:59:21;;;;;;;5.93;5.07;;;;;;;33.07;39.64;95142.03;4949140;29;20272;-76
2022/07/02 10:01:47;;;;;;;5.93;4.78;;;;;;;32.70;38.22;95143.28;4946624;29;20953;-76
2022/07/02 10:04:13;;;;;;;6.35;5.03;;;;;;;32.71;38.10;95139.41;4949264;29;20214;-76
2022/07/02 10:06:46;;;;;;;10.07;5.47;;;;;;;32.49;38.48;95124.31;4930348;29;20261;-76
2022/07/02 10:09:14;;;;;;;7.72;5.20;;;;;;;32.54;40.77;95116.69;4950167;29;20634;-76
2022/07/02 10:11:40;;;;;;;9.75;5.45;;;;;;;32.81;41.94;95119.84;4951792;29;20544;-76
2022/07/02 10:14:09;;;;;;;10.40;5.55;;;;;;;33.06;41.24;95121.34;4946135;29;20178;-76
2022/07/02 10:16:35;;;;;;;7.38;5.65;;;;;;;33.21;41.08;95112.44;4950060;28;20177;-75
2022/07/02 10:19:03;;;;;;;8.10;5.93;;;;;;;33.32;38.91;95129.91;4951119;29;20179;-76
2022/07/02 10:21:29;;;;;;;9.18;5.40;;;;;;;33.38;39.16;95122.28;4951260;29;20178;-75
2022/07/02 10:23:57;;;;;;;13.50;6.07;;;;;;;33.41;38.30;95118.81;4951101;29;20266;-75
2022/07/02 10:26:23;;;;;;;8.25;5.93;;;;;;;33.31;38.27;95122.84;4951190;29;20363;-76
2022/07/02 10:28:49;;;;;;;12.15;5.78;;;;;;;33.05;39.14;95106.09;4951063;29;20170;-76
2022/07/02 10:31:21;;;;;;;8.25;5.47;;;;;;;33.07;39.11;95103.03;4949098;29;20608;-76
2022/07/02 10:33:59;;;;;;;9.50;6.10;;;;;;;33.11;38.75;95103.94;4950853;29;20178;-76
2022/07/02 10:36:25;;;;;;;7.45;5.13;;;;;;;33.12;36.79;95108.25;4951158;29;20178;-76
2022/07/02 10:38:59;;;;;;;8.77;4.85;;;;;;;33.11;36.04;95112.94;4950966;29;20182;-75
2022/07/02 10:41:31;;;;;;;6.65;5.20;;;;;;;32.84;36.87;95087.22;4950895;29;20219;-75
2022/07/02 10:43:58;;;;;;;7.43;5.80;;;;;;;32.90;39.50;95101.41;4949005;29;20185;-76
2022/07/02 10:46:25;;;;;;;5.85;5.03;;;;;;;32.80;38.47;95108.13;4950912;29;20561;-77
2022/07/02 10:48:55;;;;;;;5.75;5.25;;;;;;;32.73;40.23;95104.41;4951155;29;20225;-77
2022/07/02 10:51:30;;;;;;;19.45;5.78;;;;;;;32.82;39.16;95111.31;4950957;29;20249;-77
2022/07/02 10:54:00;;;;;;;9.10;5.05;;;;;;;32.86;37.80;95097.78;4951546;28;20174;-77
2022/07/02 10:56:27;;;;;;;6.07;5.10;;;;;;;32.98;38.67;95103.97;4954495;29;20170;-77
2022/07/02 10:58:52;;;;;;;9.15;5.47;;;;;;;33.12;37.24;95106.31;4937745;29;20185;-76
2022/07/02 11:01:22;;;;;;;6.20;4.78;;;;;;;33.17;38.02;95100.59;4955156;29;20598;-76
2022/07/02 11:03:55;;;;;;;6.15;5.35;;;;;;;33.19;36.97;95111.97;4955115;29;20222;-76
2022/07/02 11:06:26;;;;;;;11.77;5.55;;;;;;;33.02;37.46;95095.91;4955248;29;20178;-76
2022/07/02 11:09:05;;;;;;;13.07;5.05;;;;;;;32.88;39.28;95098.22;4955347;29;20170;-76
2022/07/02 11:11:36;;;;;;;7.60;5.88;;;;;;;32.77;38.67;95091.69;4954975;29;20167;-76
2022/07/02 11:14:01;;;;;;;6.32;5.32;;;;;;;32.77;40.93;95092.47;4955147;29;20206;-76
2022/07/02 11:16:41;;;;;;;8.48;5.00;;;;;;;32.80;40.01;95083.56;4954695;29;20697;-77
2022/07/02 11:19:15;;;;;;;6.95;5.68;;;;;;;32.86;37.66;95086.88;4951517;29;20208;-78
2022/07/02 11:21:40;;;;;;;9.00;5.18;;;;;;;32.76;36.80;95090.88;4955498;29;20195;-79
2022/07/02 11:24:07;;;;;;;8.93;5.15;;;;;;;32.59;37.73;95089.19;4955871;29;20253;-78
2022/07/02 11:26:33;;;;;;;7.82;4.88;;;;;;;32.57;38.46;95096.91;4954067;29;20206;-78